Hlavní strana
METAR-TAF:

METAR-TAF

Letiště :

Columbus, Indiana, Spojené státy americké

zeměpisná šířka: 39-16N, zeměpisná délka: 085-54W, výška: 200 m

Aktuální stav počasí

Zpráva byla vytvořena před 1 hodinou a 0 minutami, v 23:45 UTC
Východojihovýchodní vítr 4 kt
Teplota 2°C
Vlhkost vzduchu 55%
Tlak 1027 hPa
Viditelnost: 16.1 km
Jasno

METAR: KBAK 072345Z 12004KT 10SM SKC 02/M06 A3032

Čas: 19:45 (00:45 UTC)


TAF: chybějící

Stav a předpovědi počasí z více než 4 000 letišť (zprávy METAR a TAF).

Červené a žluté tečky na mapě představují dostupné meteorologické stanice.

Když kurzor umístíte na tečku, zobrazí se název stanice.

Pak kliknutím zobrazíte stav a předpověď počasí.

Chcete-li změnit mapu, kliknutím na zelené tlačítko se znaménkem +mapu přiblížíte, kliknutím na zelené tlačítko se znaménkem – mapu oddálíte a kliknutím na zelené šipky přejdete na sousední mapy.


METAR-TAF: